sensor_id;sensor_type;location;lat;lon;timestamp;temperature;humidity
64638;HTU21D;51049;45.046;38.950;2023-06-04T00:02:10;21.59;67.10
64638;HTU21D;51049;45.046;38.950;2023-06-04T00:04:36;21.60;67.10
64638;HTU21D;51049;45.046;38.950;2023-06-04T00:07:02;21.62;67.24
64638;HTU21D;51049;45.046;38.950;2023-06-04T00:09:28;21.63;67.17
64638;HTU21D;51049;45.046;38.950;2023-06-04T00:11:54;21.64;67.19
64638;HTU21D;51049;45.046;38.950;2023-06-04T00:14:20;21.64;67.24
64638;HTU21D;51049;45.046;38.950;2023-06-04T00:16:46;21.65;67.23
64638;HTU21D;51049;45.046;38.950;2023-06-04T00:19:12;21.64;67.38
64638;HTU21D;51049;45.046;38.950;2023-06-04T00:21:38;21.64;67.27
64638;HTU21D;51049;45.046;38.950;2023-06-04T00:24:04;21.63;67.43
64638;HTU21D;51049;45.046;38.950;2023-06-04T00:26:29;21.62;67.45
64638;HTU21D;51049;45.046;38.950;2023-06-04T00:28:55;21.62;67.46
64638;HTU21D;51049;45.046;38.950;2023-06-04T00:31:21;21.59;67.46
64638;HTU21D;51049;45.046;38.950;2023-06-04T00:33:48;21.57;67.55
64638;HTU21D;51049;45.046;38.950;2023-06-04T00:36:14;21.54;67.65
64638;HTU21D;51049;45.046;38.950;2023-06-04T00:38:40;21.52;67.67
64638;HTU21D;51049;45.046;38.950;2023-06-04T00:41:06;21.52;67.70
64638;HTU21D;51049;45.046;38.950;2023-06-04T00:43:32;21.51;67.71
64638;HTU21D;51049;45.046;38.950;2023-06-04T00:45:58;21.51;67.72
64638;HTU21D;51049;45.046;38.950;2023-06-04T00:48:26;21.52;67.75
64638;HTU21D;51049;45.046;38.950;2023-06-04T00:50:53;21.53;67.75
64638;HTU21D;51049;45.046;38.950;2023-06-04T00:53:24;21.54;67.84
64638;HTU21D;51049;45.046;38.950;2023-06-04T00:55:51;21.55;67.76
64638;HTU21D;51049;45.046;38.950;2023-06-04T00:58:17;21.55;67.79
64638;HTU21D;51049;45.046;38.950;2023-06-04T01:00:44;21.57;67.80
64638;HTU21D;51049;45.046;38.950;2023-06-04T01:03:16;21.55;67.83
64638;HTU21D;51049;45.046;38.950;2023-06-04T01:08:58;21.54;67.59
64638;HTU21D;51049;45.046;38.950;2023-06-04T01:11:36;21.54;67.67
64638;HTU21D;51049;45.046;38.950;2023-06-04T01:14:04;21.53;67.65
64638;HTU21D;51049;45.046;38.950;2023-06-04T01:16:39;21.52;67.72
64638;HTU21D;51049;45.046;38.950;2023-06-04T01:19:44;21.51;67.59
64638;HTU21D;51049;45.046;38.950;2023-06-04T01:25:12;21.47;67.60
64638;HTU21D;51049;45.046;38.950;2023-06-04T01:27:55;21.40;67.62
64638;HTU21D;51049;45.046;38.950;2023-06-04T01:30:28;21.38;67.73
64638;HTU21D;51049;45.046;38.950;2023-06-04T01:32:55;21.35;67.76
64638;HTU21D;51049;45.046;38.950;2023-06-04T01:35:22;21.31;67.89
64638;HTU21D;51049;45.046;38.950;2023-06-04T01:37:49;21.32;67.90
64638;HTU21D;51049;45.046;38.950;2023-06-04T01:40:15;21.32;67.88
64638;HTU21D;51049;45.046;38.950;2023-06-04T01:42:42;21.35;67.88
64638;HTU21D;51049;45.046;38.950;2023-06-04T01:45:08;21.35;67.83
64638;HTU21D;51049;45.046;38.950;2023-06-04T01:47:34;21.39;67.74
64638;HTU21D;51049;45.046;38.950;2023-06-04T01:50:04;21.40;67.72
64638;HTU21D;51049;45.046;38.950;2023-06-04T01:52:31;21.43;67.66
64638;HTU21D;51049;45.046;38.950;2023-06-04T01:54:58;21.45;67.65
64638;HTU21D;51049;45.046;38.950;2023-06-04T01:57:24;21.46;67.64
64638;HTU21D;51049;45.046;38.950;2023-06-04T01:59:51;21.48;67.59
64638;HTU21D;51049;45.046;38.950;2023-06-04T02:02:17;21.49;67.57
64638;HTU21D;51049;45.046;38.950;2023-06-04T02:04:44;21.50;67.52
64638;HTU21D;51049;45.046;38.950;2023-06-04T02:07:11;21.51;67.49
64638;HTU21D;51049;45.046;38.950;2023-06-04T02:09:39;21.51;67.45
64638;HTU21D;51049;45.046;38.950;2023-06-04T02:12:06;21.51;67.42
64638;HTU21D;51049;45.046;38.950;2023-06-04T02:14:32;21.52;67.38
64638;HTU21D;51049;45.046;38.950;2023-06-04T02:16:57;21.52;67.40
64638;HTU21D;51049;45.046;38.950;2023-06-04T02:19:24;21.54;67.36
64638;HTU21D;51049;45.046;38.950;2023-06-04T02:21:52;21.57;67.36
64638;HTU21D;51049;45.046;38.950;2023-06-04T02:24:18;21.59;67.29
64638;HTU21D;51049;45.046;38.950;2023-06-04T02:26:44;21.62;67.26
64638;HTU21D;51049;45.046;38.950;2023-06-04T02:29:10;21.63;67.22
64638;HTU21D;51049;45.046;38.950;2023-06-04T02:31:36;21.66;67.20
64638;HTU21D;51049;45.046;38.950;2023-06-04T02:34:03;21.67;67.14
64638;HTU21D;51049;45.046;38.950;2023-06-04T02:36:29;21.68;67.07
64638;HTU21D;51049;45.046;38.950;2023-06-04T02:38:56;21.69;67.07
64638;HTU21D;51049;45.046;38.950;2023-06-04T02:41:23;21.68;67.11
64638;HTU21D;51049;45.046;38.950;2023-06-04T02:43:50;21.68;67.07
64638;HTU21D;51049;45.046;38.950;2023-06-04T02:46:16;21.65;67.05
64638;HTU21D;51049;45.046;38.950;2023-06-04T02:48:42;21.64;67.06
64638;HTU21D;51049;45.046;38.950;2023-06-04T02:51:08;21.62;67.05
64638;HTU21D;51049;45.046;38.950;2023-06-04T02:53:36;21.58;67.08
64638;HTU21D;51049;45.046;38.950;2023-06-04T02:56:02;21.54;67.10
64638;HTU21D;51049;45.046;38.950;2023-06-04T02:58:28;21.50;67.12
64638;HTU21D;51049;45.046;38.950;2023-06-04T03:00:54;21.47;67.16
64638;HTU21D;51049;45.046;38.950;2023-06-04T03:03:21;21.43;67.20
64638;HTU21D;51049;45.046;38.950;2023-06-04T03:05:47;21.42;67.20
64638;HTU21D;51049;45.046;38.950;2023-06-04T03:08:13;21.39;67.27
64638;HTU21D;51049;45.046;38.950;2023-06-04T03:10:39;21.37;67.33
64638;HTU21D;51049;45.046;38.950;2023-06-04T03:13:05;21.36;67.42
64638;HTU21D;51049;45.046;38.950;2023-06-04T03:15:31;21.31;67.68
64638;HTU21D;51049;45.046;38.950;2023-06-04T03:17:57;21.22;67.96
64638;HTU21D;51049;45.046;38.950;2023-06-04T03:20:23;21.03;68.33
64638;HTU21D;51049;45.046;38.950;2023-06-04T03:22:51;20.61;69.10
64638;HTU21D;51049;45.046;38.950;2023-06-04T03:25:17;20.00;69.45
64638;HTU21D;51049;45.046;38.950;2023-06-04T03:27:43;19.36;70.63
64638;HTU21D;51049;45.046;38.950;2023-06-04T03:30:09;18.88;71.62
64638;HTU21D;51049;45.046;38.950;2023-06-04T03:32:43;18.61;72.09
64638;HTU21D;51049;45.046;38.950;2023-06-04T03:35:11;18.48;72.57
64638;HTU21D;51049;45.046;38.950;2023-06-04T03:37:37;18.43;72.99
64638;HTU21D;51049;45.046;38.950;2023-06-04T03:40:05;18.43;73.26
64638;HTU21D;51049;45.046;38.950;2023-06-04T03:42:34;18.44;73.34
64638;HTU21D;51049;45.046;38.950;2023-06-04T03:45:01;18.43;73.70
64638;HTU21D;51049;45.046;38.950;2023-06-04T03:47:28;18.44;73.96
64638;HTU21D;51049;45.046;38.950;2023-06-04T03:49:54;18.43;74.26
64638;HTU21D;51049;45.046;38.950;2023-06-04T03:52:20;18.43;74.51
64638;HTU21D;51049;45.046;38.950;2023-06-04T03:54:46;18.39;74.56
64638;HTU21D;51049;45.046;38.950;2023-06-04T03:57:12;18.39;74.79
64638;HTU21D;51049;45.046;38.950;2023-06-04T03:59:38;18.37;75.05
64638;HTU21D;51049;45.046;38.950;2023-06-04T04:02:04;18.36;75.31
64638;HTU21D;51049;45.046;38.950;2023-06-04T04:04:31;18.37;75.57
64638;HTU21D;51049;45.046;38.950;2023-06-04T04:06:59;18.37;75.72
64638;HTU21D;51049;45.046;38.950;2023-06-04T04:09:26;18.35;75.82
64638;HTU21D;51049;45.046;38.950;2023-06-04T04:11:52;18.37;75.83
64638;HTU21D;51049;45.046;38.950;2023-06-04T04:14:19;18.38;75.82
64638;HTU21D;51049;45.046;38.950;2023-06-04T04:16:45;18.41;76.08
64638;HTU21D;51049;45.046;38.950;2023-06-04T04:19:11;18.43;76.12
64638;HTU21D;51049;45.046;38.950;2023-06-04T04:21:38;18.48;76.00
64638;HTU21D;51049;45.046;38.950;2023-06-04T04:24:05;18.49;76.18
64638;HTU21D;51049;45.046;38.950;2023-06-04T04:26:31;18.49;76.32
64638;HTU21D;51049;45.046;38.950;2023-06-04T04:28:58;18.44;76.70
64638;HTU21D;51049;45.046;38.950;2023-06-04T04:31:29;18.39;76.88
64638;HTU21D;51049;45.046;38.950;2023-06-04T04:33:56;18.34;77.03
64638;HTU21D;51049;45.046;38.950;2023-06-04T04:36:22;18.29;77.29
64638;HTU21D;51049;45.046;38.950;2023-06-04T04:38:48;18.25;77.15
64638;HTU21D;51049;45.046;38.950;2023-06-04T04:41:22;18.23;77.13
64638;HTU21D;51049;45.046;38.950;2023-06-04T04:43:52;18.23;77.19
64638;HTU21D;51049;45.046;38.950;2023-06-04T04:46:23;18.21;77.12
64638;HTU21D;51049;45.046;38.950;2023-06-04T04:48:50;18.21;77.21
64638;HTU21D;51049;45.046;38.950;2023-06-04T04:51:16;18.20;77.36
64638;HTU21D;51049;45.046;38.950;2023-06-04T04:53:42;18.13;77.29
64638;HTU21D;51049;45.046;38.950;2023-06-04T04:56:08;18.09;77.45
64638;HTU21D;51049;45.046;38.950;2023-06-04T04:58:38;18.04;77.47
64638;HTU21D;51049;45.046;38.950;2023-06-04T05:01:04;17.98;77.56
64638;HTU21D;51049;45.046;38.950;2023-06-04T05:03:31;17.94;77.82
64638;HTU21D;51049;45.046;38.950;2023-06-04T05:05:57;17.90;77.93
64638;HTU21D;51049;45.046;38.950;2023-06-04T05:08:23;17.85;78.08
64638;HTU21D;51049;45.046;38.950;2023-06-04T05:10:50;17.82;78.29
64638;HTU21D;51049;45.046;38.950;2023-06-04T05:13:16;17.79;78.30
64638;HTU21D;51049;45.046;38.950;2023-06-04T05:15:50;17.78;78.30
64638;HTU21D;51049;45.046;38.950;2023-06-04T05:18:20;17.75;78.40
64638;HTU21D;51049;45.046;38.950;2023-06-04T05:20:47;17.72;78.44
64638;HTU21D;51049;45.046;38.950;2023-06-04T05:23:14;17.69;78.63
64638;HTU21D;51049;45.046;38.950;2023-06-04T05:25:42;17.64;78.69
64638;HTU21D;51049;45.046;38.950;2023-06-04T05:28:09;17.62;78.82
64638;HTU21D;51049;45.046;38.950;2023-06-04T05:30:36;17.61;78.86
64638;HTU21D;51049;45.046;38.950;2023-06-04T05:33:08;17.62;78.97
64638;HTU21D;51049;45.046;38.950;2023-06-04T05:35:48;17.63;79.06
64638;HTU21D;51049;45.046;38.950;2023-06-04T05:38:14;17.65;79.15
64638;HTU21D;51049;45.046;38.950;2023-06-04T05:40:47;17.64;79.18
64638;HTU21D;51049;45.046;38.950;2023-06-04T05:43:13;17.63;79.33
64638;HTU21D;51049;45.046;38.950;2023-06-04T05:45:39;17.61;79.47
64638;HTU21D;51049;45.046;38.950;2023-06-04T05:48:06;17.62;79.41
64638;HTU21D;51049;45.046;38.950;2023-06-04T05:50:32;17.61;79.49
64638;HTU21D;51049;45.046;38.950;2023-06-04T05:52:58;17.60;79.47
64638;HTU21D;51049;45.046;38.950;2023-06-04T05:55:24;17.60;79.46
64638;HTU21D;51049;45.046;38.950;2023-06-04T05:57:51;17.58;79.40
64638;HTU21D;51049;45.046;38.950;2023-06-04T06:00:18;17.58;79.52
64638;HTU21D;51049;45.046;38.950;2023-06-04T06:02:46;17.56;79.57
64638;HTU21D;51049;45.046;38.950;2023-06-04T06:05:26;17.55;79.54
64638;HTU21D;51049;45.046;38.950;2023-06-04T06:07:52;17.54;79.72
64638;HTU21D;51049;45.046;38.950;2023-06-04T06:10:18;17.54;79.74
64638;HTU21D;51049;45.046;38.950;2023-06-04T06:12:45;17.52;79.85
64638;HTU21D;51049;45.046;38.950;2023-06-04T06:15:11;17.51;79.91
64638;HTU21D;51049;45.046;38.950;2023-06-04T06:17:39;17.49;80.04
64638;HTU21D;51049;45.046;38.950;2023-06-04T06:20:05;17.44;80.23
64638;HTU21D;51049;45.046;38.950;2023-06-04T06:22:33;17.39;80.30
64638;HTU21D;51049;45.046;38.950;2023-06-04T06:24:59;17.36;80.49
64638;HTU21D;51049;45.046;38.950;2023-06-04T06:27:26;17.31;80.49
64638;HTU21D;51049;45.046;38.950;2023-06-04T06:29:52;17.28;81.49
64638;HTU21D;51049;45.046;38.950;2023-06-04T06:32:18;17.25;81.79
64638;HTU21D;51049;45.046;38.950;2023-06-04T06:34:44;17.23;82.16
64638;HTU21D;51049;45.046;38.950;2023-06-04T06:37:10;17.21;82.23
64638;HTU21D;51049;45.046;38.950;2023-06-04T06:39:36;17.19;82.23
64638;HTU21D;51049;45.046;38.950;2023-06-04T06:42:02;17.18;81.87
64638;HTU21D;51049;45.046;38.950;2023-06-04T06:44:34;17.17;82.01
64638;HTU21D;51049;45.046;38.950;2023-06-04T06:47:00;17.18;81.89
64638;HTU21D;51049;45.046;38.950;2023-06-04T06:49:26;17.19;82.23
64638;HTU21D;51049;45.046;38.950;2023-06-04T06:51:51;17.19;81.96
64638;HTU21D;51049;45.046;38.950;2023-06-04T06:54:18;17.22;81.77
64638;HTU21D;51049;45.046;38.950;2023-06-04T06:56:48;17.24;81.64
64638;HTU21D;51049;45.046;38.950;2023-06-04T06:59:15;17.26;81.78
64638;HTU21D;51049;45.046;38.950;2023-06-04T07:01:41;17.29;81.65
64638;HTU21D;51049;45.046;38.950;2023-06-04T07:04:07;17.32;81.97
64638;HTU21D;51049;45.046;38.950;2023-06-04T07:06:34;17.35;81.88
64638;HTU21D;51049;45.046;38.950;2023-06-04T07:09:01;17.38;81.66
64638;HTU21D;51049;45.046;38.950;2023-06-04T07:11:27;17.41;81.58
64638;HTU21D;51049;45.046;38.950;2023-06-04T07:13:53;17.47;81.53
64638;HTU21D;51049;45.046;38.950;2023-06-04T07:16:19;17.52;81.71
64638;HTU21D;51049;45.046;38.950;2023-06-04T07:18:47;17.54;81.60
64638;HTU21D;51049;45.046;38.950;2023-06-04T07:21:14;17.60;81.52
64638;HTU21D;51049;45.046;38.950;2023-06-04T07:23:40;17.67;81.47
64638;HTU21D;51049;45.046;38.950;2023-06-04T07:26:06;17.72;81.41
64638;HTU21D;51049;45.046;38.950;2023-06-04T07:28:32;17.81;81.66
64638;HTU21D;51049;45.046;38.950;2023-06-04T07:30:58;17.88;81.42
64638;HTU21D;51049;45.046;38.950;2023-06-04T07:33:24;17.95;81.59
64638;HTU21D;51049;45.046;38.950;2023-06-04T07:35:51;18.02;81.35
64638;HTU21D;51049;45.046;38.950;2023-06-04T07:38:17;18.08;81.19
64638;HTU21D;51049;45.046;38.950;2023-06-04T07:40:45;18.17;81.30
64638;HTU21D;51049;45.046;38.950;2023-06-04T07:43:11;18.22;81.03
64638;HTU21D;51049;45.046;38.950;2023-06-04T07:45:37;18.27;81.04
64638;HTU21D;51049;45.046;38.950;2023-06-04T07:48:03;18.30;80.90
64638;HTU21D;51049;45.046;38.950;2023-06-04T07:50:29;18.39;80.84
64638;HTU21D;51049;45.046;38.950;2023-06-04T07:52:55;18.46;81.01
64638;HTU21D;51049;45.046;38.950;2023-06-04T07:55:22;18.50;81.17
64638;HTU21D;51049;45.046;38.950;2023-06-04T07:57:48;18.54;80.89
64638;HTU21D;51049;45.046;38.950;2023-06-04T08:00:14;18.59;80.64
64638;HTU21D;51049;45.046;38.950;2023-06-04T08:02:40;18.67;80.47
64638;HTU21D;51049;45.046;38.950;2023-06-04T08:05:06;18.79;80.32
64638;HTU21D;51049;45.046;38.950;2023-06-04T08:07:32;18.89;80.11
64638;HTU21D;51049;45.046;38.950;2023-06-04T08:09:58;18.99;79.86
64638;HTU21D;51049;45.046;38.950;2023-06-04T08:12:24;19.09;79.75
64638;HTU21D;51049;45.046;38.950;2023-06-04T08:14:50;19.16;79.58
64638;HTU21D;51049;45.046;38.950;2023-06-04T08:17:16;19.25;79.43
64638;HTU21D;51049;45.046;38.950;2023-06-04T08:19:42;19.33;79.33
64638;HTU21D;51049;45.046;38.950;2023-06-04T08:22:08;19.41;79.11
64638;HTU21D;51049;45.046;38.950;2023-06-04T08:24:36;19.44;78.95
64638;HTU21D;51049;45.046;38.950;2023-06-04T08:27:02;19.50;78.82
64638;HTU21D;51049;45.046;38.950;2023-06-04T08:29:28;19.56;78.72
64638;HTU21D;51049;45.046;38.950;2023-06-04T08:31:54;19.60;78.60
64638;HTU21D;51049;45.046;38.950;2023-06-04T08:34:20;19.58;78.45
64638;HTU21D;51049;45.046;38.950;2023-06-04T08:36:46;19.56;78.42
64638;HTU21D;51049;45.046;38.950;2023-06-04T08:39:12;19.54;78.40
64638;HTU21D;51049;45.046;38.950;2023-06-04T08:41:49;19.50;78.37
64638;HTU21D;51049;45.046;38.950;2023-06-04T08:44:16;19.46;78.37
64638;HTU21D;51049;45.046;38.950;2023-06-04T08:46:44;19.45;78.40
64638;HTU21D;51049;45.046;38.950;2023-06-04T08:49:12;19.44;78.42
64638;HTU21D;51049;45.046;38.950;2023-06-04T08:51:38;19.43;78.40
64638;HTU21D;51049;45.046;38.950;2023-06-04T08:54:07;19.44;78.39
64638;HTU21D;51049;45.046;38.950;2023-06-04T08:56:36;19.45;78.33
64638;HTU21D;51049;45.046;38.950;2023-06-04T08:59:04;19.48;78.17
64638;HTU21D;51049;45.046;38.950;2023-06-04T09:01:32;19.50;78.14
64638;HTU21D;51049;45.046;38.950;2023-06-04T09:04:04;19.47;78.14
64638;HTU21D;51049;45.046;38.950;2023-06-04T09:06:30;19.47;77.95
64638;HTU21D;51049;45.046;38.950;2023-06-04T09:08:59;19.45;77.89
64638;HTU21D;51049;45.046;38.950;2023-06-04T09:11:36;19.42;78.01
64638;HTU21D;51049;45.046;38.950;2023-06-04T09:14:05;19.40;78.03
64638;HTU21D;51049;45.046;38.950;2023-06-04T09:16:45;19.33;78.09
64638;HTU21D;51049;45.046;38.950;2023-06-04T09:19:11;19.29;78.13
64638;HTU21D;51049;45.046;38.950;2023-06-04T09:21:56;19.24;78.21
64638;HTU21D;51049;45.046;38.950;2023-06-04T09:24:45;19.17;78.27
64638;HTU21D;51049;45.046;38.950;2023-06-04T09:27:14;19.11;78.34
64638;HTU21D;51049;45.046;38.950;2023-06-04T09:29:49;19.05;78.47
64638;HTU21D;51049;45.046;38.950;2023-06-04T09:32:23;19.00;78.59
64638;HTU21D;51049;45.046;38.950;2023-06-04T09:34:49;18.96;78.59
64638;HTU21D;51049;45.046;38.950;2023-06-04T09:37:15;18.92;78.65
64638;HTU21D;51049;45.046;38.950;2023-06-04T09:39:43;18.91;78.72
64638;HTU21D;51049;45.046;38.950;2023-06-04T09:42:10;18.89;78.77
64638;HTU21D;51049;45.046;38.950;2023-06-04T09:44:43;18.88;78.82
64638;HTU21D;51049;45.046;38.950;2023-06-04T09:47:10;18.86;78.81
64638;HTU21D;51049;45.046;38.950;2023-06-04T09:49:47;18.86;78.97
64638;HTU21D;51049;45.046;38.950;2023-06-04T09:52:14;18.88;78.96
64638;HTU21D;51049;45.046;38.950;2023-06-04T09:54:41;18.89;79.01
64638;HTU21D;51049;45.046;38.950;2023-06-04T09:57:17;18.92;79.14
64638;HTU21D;51049;45.046;38.950;2023-06-04T09:59:45;18.94;79.20
64638;HTU21D;51049;45.046;38.950;2023-06-04T10:02:12;18.96;79.15
64638;HTU21D;51049;45.046;38.950;2023-06-04T10:04:42;18.98;79.21
64638;HTU21D;51049;45.046;38.950;2023-06-04T10:07:09;19.02;79.17
64638;HTU21D;51049;45.046;38.950;2023-06-04T10:09:38;19.03;79.12
64638;HTU21D;51049;45.046;38.950;2023-06-04T10:12:14;19.06;79.05
64638;HTU21D;51049;45.046;38.950;2023-06-04T10:14:52;19.32;79.08
64638;HTU21D;51049;45.046;38.950;2023-06-04T10:17:21;19.39;79.09
64638;HTU21D;51049;45.046;38.950;2023-06-04T10:19:49;19.47;79.11
64638;HTU21D;51049;45.046;38.950;2023-06-04T10:22:17;19.56;79.01
64638;HTU21D;51049;45.046;38.950;2023-06-04T10:24:44;19.63;78.92
64638;HTU21D;51049;45.046;38.950;2023-06-04T10:27:11;19.75;78.79
64638;HTU21D;51049;45.046;38.950;2023-06-04T10:29:42;19.87;78.69
64638;HTU21D;51049;45.046;38.950;2023-06-04T10:32:08;20.03;78.51
64638;HTU21D;51049;45.046;38.950;2023-06-04T10:34:34;20.19;78.32
64638;HTU21D;51049;45.046;38.950;2023-06-04T10:37:01;20.39;78.15
64638;HTU21D;51049;45.046;38.950;2023-06-04T10:39:29;20.61;77.91
64638;HTU21D;51049;45.046;38.950;2023-06-04T10:42:06;20.84;77.78
64638;HTU21D;51049;45.046;38.950;2023-06-04T10:44:53;21.10;77.55
64638;HTU21D;51049;45.046;38.950;2023-06-04T10:47:27;21.33;77.31
64638;HTU21D;51049;45.046;38.950;2023-06-04T10:50:07;21.52;76.83
64638;HTU21D;51049;45.046;38.950;2023-06-04T10:52:33;21.74;76.57
64638;HTU21D;51049;45.046;38.950;2023-06-04T10:55:07;22.01;76.50
64638;HTU21D;51049;45.046;38.950;2023-06-04T10:57:34;22.29;76.12
64638;HTU21D;51049;45.046;38.950;2023-06-04T11:00:00;22.49;75.63
64638;HTU21D;51049;45.046;38.950;2023-06-04T11:02:31;22.64;75.28
64638;HTU21D;51049;45.046;38.950;2023-06-04T11:05:05;22.71;74.97
64638;HTU21D;51049;45.046;38.950;2023-06-04T11:07:45;22.73;74.88
64638;HTU21D;51049;45.046;38.950;2023-06-04T11:10:15;22.67;74.76
64638;HTU21D;51049;45.046;38.950;2023-06-04T11:12:49;22.63;74.76
64638;HTU21D;51049;45.046;38.950;2023-06-04T11:15:18;22.58;74.70
64638;HTU21D;51049;45.046;38.950;2023-06-04T11:17:51;22.54;74.60
64638;HTU21D;51049;45.046;38.950;2023-06-04T11:20:19;22.46;74.53
64638;HTU21D;51049;45.046;38.950;2023-06-04T11:22:55;22.33;74.35
64638;HTU21D;51049;45.046;38.950;2023-06-04T11:25:26;22.21;74.40
64638;HTU21D;51049;45.046;38.950;2023-06-04T11:27:53;22.20;74.35
64638;HTU21D;51049;45.046;38.950;2023-06-04T11:30:19;22.19;74.15
64638;HTU21D;51049;45.046;38.950;2023-06-04T11:32:46;22.20;74.07
64638;HTU21D;51049;45.046;38.950;2023-06-04T11:35:12;22.21;74.12
64638;HTU21D;51049;45.046;38.950;2023-06-04T11:37:38;22.21;73.99
64638;HTU21D;51049;45.046;38.950;2023-06-04T11:40:20;22.29;73.95
64638;HTU21D;51049;45.046;38.950;2023-06-04T11:42:49;0.00;73.88
64638;HTU21D;51049;45.046;38.950;2023-06-04T11:45:20;22.99;72.91
64638;HTU21D;51049;45.046;38.950;2023-06-04T11:47:53;23.44;71.97
64638;HTU21D;51049;45.046;38.950;2023-06-04T11:50:21;23.89;71.21
64638;HTU21D;51049;45.046;38.950;2023-06-04T11:52:48;24.41;70.06
64638;HTU21D;51049;45.046;38.950;2023-06-04T11:55:15;25.08;68.30
64638;HTU21D;51049;45.046;38.950;2023-06-04T11:57:43;25.65;66.84
64638;HTU21D;51049;45.046;38.950;2023-06-04T12:00:10;25.94;66.40
64638;HTU21D;51049;45.046;38.950;2023-06-04T12:02:56;26.03;66.09
64638;HTU21D;51049;45.046;38.950;2023-06-04T12:05:28;26.23;65.30
64638;HTU21D;51049;45.046;38.950;2023-06-04T12:08:04;26.22;64.87
64638;HTU21D;51049;45.046;38.950;2023-06-04T12:10:37;26.46;64.72
64638;HTU21D;51049;45.046;38.950;2023-06-04T12:13:04;26.79;63.93
64638;HTU21D;51049;45.046;38.950;2023-06-04T12:15:30;27.21;62.53
64638;HTU21D;51049;45.046;38.950;2023-06-04T12:17:56;27.66;61.21
64638;HTU21D;51049;45.046;38.950;2023-06-04T12:20:36;28.21;59.35
64638;HTU21D;51049;45.046;38.950;2023-06-04T12:23:03;28.67;59.14
64638;HTU21D;51049;45.046;38.950;2023-06-04T12:25:30;29.23;57.70
64638;HTU21D;51049;45.046;38.950;2023-06-04T12:27:56;29.52;56.63
64638;HTU21D;51049;45.046;38.950;2023-06-04T12:30:23;29.64;55.94
64638;HTU21D;51049;45.046;38.950;2023-06-04T12:32:49;29.37;55.41
64638;HTU21D;51049;45.046;38.950;2023-06-04T12:35:16;29.29;55.82
64638;HTU21D;51049;45.046;38.950;2023-06-04T12:37:42;29.29;55.27
64638;HTU21D;51049;45.046;38.950;2023-06-04T12:40:08;28.98;54.96
64638;HTU21D;51049;45.046;38.950;2023-06-04T12:42:34;28.46;55.31
64638;HTU21D;51049;45.046;38.950;2023-06-04T12:45:00;27.86;55.81
64638;HTU21D;51049;45.046;38.950;2023-06-04T12:47:26;27.36;56.69
64638;HTU21D;51049;45.046;38.950;2023-06-04T12:49:52;26.89;57.31
64638;HTU21D;51049;45.046;38.950;2023-06-04T12:52:18;26.48;57.70
64638;HTU21D;51049;45.046;38.950;2023-06-04T12:54:44;26.18;58.19
64638;HTU21D;51049;45.046;38.950;2023-06-04T12:57:10;26.01;58.32
64638;HTU21D;51049;45.046;38.950;2023-06-04T12:59:36;26.01;58.56
64638;HTU21D;51049;45.046;38.950;2023-06-04T13:02:02;26.13;58.60
64638;HTU21D;51049;45.046;38.950;2023-06-04T13:04:28;26.17;58.51
64638;HTU21D;51049;45.046;38.950;2023-06-04T13:06:56;26.23;58.50
64638;HTU21D;51049;45.046;38.950;2023-06-04T13:09:25;26.36;58.48
64638;HTU21D;51049;45.046;38.950;2023-06-04T13:11:53;26.71;57.89
64638;HTU21D;51049;45.046;38.950;2023-06-04T13:14:19;26.89;57.58
64638;HTU21D;51049;45.046;38.950;2023-06-04T13:16:45;27.07;57.20
64638;HTU21D;51049;45.046;38.950;2023-06-04T13:19:14;27.31;56.84
64638;HTU21D;51049;45.046;38.950;2023-06-04T13:21:40;27.66;56.02
64638;HTU21D;51049;45.046;38.950;2023-06-04T13:24:06;27.90;55.48
64638;HTU21D;51049;45.046;38.950;2023-06-04T13:26:33;28.26;54.78
64638;HTU21D;51049;45.046;38.950;2023-06-04T13:28:59;28.49;54.17
64638;HTU21D;51049;45.046;38.950;2023-06-04T13:31:25;28.87;53.61
64638;HTU21D;51049;45.046;38.950;2023-06-04T13:33:51;29.32;53.03
64638;HTU21D;51049;45.046;38.950;2023-06-04T13:36:17;29.60;52.24
64638;HTU21D;51049;45.046;38.950;2023-06-04T13:38:43;29.79;51.58
64638;HTU21D;51049;45.046;38.950;2023-06-04T13:41:08;30.25;51.19
64638;HTU21D;51049;45.046;38.950;2023-06-04T13:43:35;30.71;50.24
64638;HTU21D;51049;45.046;38.950;2023-06-04T13:46:01;31.09;49.15
64638;HTU21D;51049;45.046;38.950;2023-06-04T13:48:27;31.22;48.80
64638;HTU21D;51049;45.046;38.950;2023-06-04T13:50:53;31.24;48.29
64638;HTU21D;51049;45.046;38.950;2023-06-04T13:53:19;31.25;48.22
64638;HTU21D;51049;45.046;38.950;2023-06-04T13:55:45;31.35;47.69
64638;HTU21D;51049;45.046;38.950;2023-06-04T13:58:11;31.26;47.74
64638;HTU21D;51049;45.046;38.950;2023-06-04T14:00:37;31.34;47.47
64638;HTU21D;51049;45.046;38.950;2023-06-04T14:03:03;31.49;47.10
64638;HTU21D;51049;45.046;38.950;2023-06-04T14:05:29;31.24;46.51
64638;HTU21D;51049;45.046;38.950;2023-06-04T14:07:57;30.63;47.34
64638;HTU21D;51049;45.046;38.950;2023-06-04T14:10:23;30.52;47.79
64638;HTU21D;51049;45.046;38.950;2023-06-04T14:12:49;30.53;47.69
64638;HTU21D;51049;45.046;38.950;2023-06-04T14:15:15;30.46;47.16
64638;HTU21D;51049;45.046;38.950;2023-06-04T14:17:41;30.25;47.59
64638;HTU21D;51049;45.046;38.950;2023-06-04T14:20:08;29.79;48.34
64638;HTU21D;51049;45.046;38.950;2023-06-04T14:22:35;29.20;49.34
64638;HTU21D;51049;45.046;38.950;2023-06-04T14:25:03;29.01;49.79
64638;HTU21D;51049;45.046;38.950;2023-06-04T14:27:29;29.19;49.83
64638;HTU21D;51049;45.046;38.950;2023-06-04T14:29:55;29.47;49.27
64638;HTU21D;51049;45.046;38.950;2023-06-04T14:32:20;29.43;49.26
64638;HTU21D;51049;45.046;38.950;2023-06-04T14:34:46;29.43;49.25
64638;HTU21D;51049;45.046;38.950;2023-06-04T14:37:12;29.16;49.76
64638;HTU21D;51049;45.046;38.950;2023-06-04T14:39:38;28.88;50.30
64638;HTU21D;51049;45.046;38.950;2023-06-04T14:42:04;28.57;50.93
64638;HTU21D;51049;45.046;38.950;2023-06-04T14:44:30;28.44;51.53
64638;HTU21D;51049;45.046;38.950;2023-06-04T14:46:58;28.35;51.88
64638;HTU21D;51049;45.046;38.950;2023-06-04T14:49:24;28.18;52.32
64638;HTU21D;51049;45.046;38.950;2023-06-04T14:51:50;27.93;52.91
64638;HTU21D;51049;45.046;38.950;2023-06-04T14:54:16;27.85;53.17
64638;HTU21D;51049;45.046;38.950;2023-06-04T14:56:42;27.67;53.27
64638;HTU21D;51049;45.046;38.950;2023-06-04T14:59:09;27.34;53.75
64638;HTU21D;51049;45.046;38.950;2023-06-04T15:01:38;26.95;54.39
64638;HTU21D;51049;45.046;38.950;2023-06-04T15:04:04;26.52;55.33
64638;HTU21D;51049;45.046;38.950;2023-06-04T15:06:30;26.08;56.19
64638;HTU21D;51049;45.046;38.950;2023-06-04T15:08:56;25.62;57.22
64638;HTU21D;51049;45.046;38.950;2023-06-04T15:11:22;25.21;58.11
64638;HTU21D;51049;45.046;38.950;2023-06-04T15:13:48;24.82;58.89